sensor_id;sensor_type;location;lat;lon;timestamp;pressure;altitude;pressure_sealevel;temperature;humidity
70902;BME280;58548;47.210;8.618;2023-04-27T00:01:13;94161.97;;;19.76;34.17
70902;BME280;58548;47.210;8.618;2023-04-27T00:03:41;94151.06;;;19.72;34.11
70902;BME280;58548;47.210;8.618;2023-04-27T00:06:08;94156.69;;;19.76;33.85
70902;BME280;58548;47.210;8.618;2023-04-27T00:08:39;94154.59;;;19.78;34.59
70902;BME280;58548;47.210;8.618;2023-04-27T00:11:07;94045.56;;;19.02;34.13
70902;BME280;58548;47.210;8.618;2023-04-27T00:13:33;94060.50;;;19.13;34.61
70902;BME280;58548;47.210;8.618;2023-04-27T00:15:59;94144.44;;;19.69;34.85
70902;BME280;58548;47.210;8.618;2023-04-27T00:18:29;94135.38;;;19.65;34.21
70902;BME280;58548;47.210;8.618;2023-04-27T00:20:56;94142.56;;;19.70;33.97
70902;BME280;58548;47.210;8.618;2023-04-27T00:23:21;94006.03;;;18.78;33.91
70902;BME280;58548;47.210;8.618;2023-04-27T00:25:53;94138.72;;;19.61;34.00
70902;BME280;58548;47.210;8.618;2023-04-27T00:28:20;94131.22;;;19.52;34.38
70902;BME280;58548;47.210;8.618;2023-04-27T00:30:48;94135.22;;;19.55;34.34
70902;BME280;58548;47.210;8.618;2023-04-27T00:33:16;94115.34;;;19.35;34.42
70902;BME280;58548;47.210;8.618;2023-04-27T00:35:44;94048.00;;;18.92;34.28
70902;BME280;58548;47.210;8.618;2023-04-27T00:38:12;94108.38;;;19.29;34.98
70902;BME280;58548;47.210;8.618;2023-04-27T00:40:38;94076.25;;;19.03;35.06
70902;BME280;58548;47.210;8.618;2023-04-27T00:43:10;94138.28;;;19.47;34.31
70902;BME280;58548;47.210;8.618;2023-04-27T00:45:41;94132.19;;;19.46;34.70
70902;BME280;58548;47.210;8.618;2023-04-27T00:48:12;94028.88;;;18.84;34.77
70902;BME280;58548;47.210;8.618;2023-04-27T00:50:38;94139.38;;;19.51;34.72
70902;BME280;58548;47.210;8.618;2023-04-27T00:53:04;94142.84;;;19.51;34.83
70902;BME280;58548;47.210;8.618;2023-04-27T00:55:31;94132.00;;;19.53;34.79
70902;BME280;58548;47.210;8.618;2023-04-27T00:57:57;94044.44;;;18.98;35.09
70902;BME280;58548;47.210;8.618;2023-04-27T01:00:23;94146.94;;;19.59;34.88
70902;BME280;58548;47.210;8.618;2023-04-27T01:02:51;94146.94;;;19.59;35.22
70902;BME280;58548;47.210;8.618;2023-04-27T01:05:18;94133.69;;;19.59;34.70
70902;BME280;58548;47.210;8.618;2023-04-27T01:07:47;94103.16;;;19.34;34.80
70902;BME280;58548;47.210;8.618;2023-04-27T01:10:13;94146.06;;;19.53;35.48
70902;BME280;58548;47.210;8.618;2023-04-27T01:12:41;94139.94;;;19.53;34.88
70902;BME280;58548;47.210;8.618;2023-04-27T01:15:07;94137.31;;;19.53;35.30
70902;BME280;58548;47.210;8.618;2023-04-27T01:17:33;94052.72;;;18.90;35.77
70902;BME280;58548;47.210;8.618;2023-04-27T01:20:04;94122.06;;;19.43;34.91
70902;BME280;58548;47.210;8.618;2023-04-27T01:22:32;94031.44;;;18.79;35.46
70902;BME280;58548;47.210;8.618;2023-04-27T01:24:58;94045.84;;;18.89;35.43
70902;BME280;58548;47.210;8.618;2023-04-27T01:27:26;94147.41;;;19.56;35.60
70902;BME280;58548;47.210;8.618;2023-04-27T01:29:54;94145.72;;;19.50;35.55
70902;BME280;58548;47.210;8.618;2023-04-27T01:32:20;94049.53;;;18.88;35.40
70902;BME280;58548;47.210;8.618;2023-04-27T01:34:46;94145.34;;;19.41;35.57
70902;BME280;58548;47.210;8.618;2023-04-27T01:37:14;94147.78;;;19.42;35.35
70902;BME280;58548;47.210;8.618;2023-04-27T01:39:43;94144.00;;;19.38;35.73
70902;BME280;58548;47.210;8.618;2023-04-27T01:42:11;94147.28;;;19.46;35.55
70902;BME280;58548;47.210;8.618;2023-04-27T01:44:37;94022.72;;;18.62;35.75
70902;BME280;58548;47.210;8.618;2023-04-27T01:47:05;94149.28;;;19.38;36.34
70902;BME280;58548;47.210;8.618;2023-04-27T01:49:33;94150.34;;;19.37;36.22
70902;BME280;58548;47.210;8.618;2023-04-27T01:52:02;94089.88;;;18.95;36.37
70902;BME280;58548;47.210;8.618;2023-04-27T01:54:33;94035.84;;;18.57;36.55
70902;BME280;58548;47.210;8.618;2023-04-27T01:56:59;94072.25;;;18.83;36.84
70902;BME280;58548;47.210;8.618;2023-04-27T01:59:27;94153.38;;;19.29;36.52
70902;BME280;58548;47.210;8.618;2023-04-27T02:01:55;94110.94;;;18.90;36.41
70902;BME280;58548;47.210;8.618;2023-04-27T02:04:23;94005.06;;;18.16;36.72
70902;BME280;58548;47.210;8.618;2023-04-27T02:06:54;94167.13;;;19.26;36.83
70902;BME280;58548;47.210;8.618;2023-04-27T02:09:22;94171.03;;;19.23;37.09
70902;BME280;58548;47.210;8.618;2023-04-27T02:11:48;94176.34;;;19.23;36.95
70902;BME280;58548;47.210;8.618;2023-04-27T02:14:16;94086.25;;;18.67;36.53
70902;BME280;58548;47.210;8.618;2023-04-27T02:16:44;94172.81;;;19.18;36.92
70902;BME280;58548;47.210;8.618;2023-04-27T02:19:13;94079.41;;;18.54;36.48
70902;BME280;58548;47.210;8.618;2023-04-27T02:21:39;94077.69;;;18.60;36.36
70902;BME280;58548;47.210;8.618;2023-04-27T02:24:05;94160.88;;;19.15;36.96
70902;BME280;58548;47.210;8.618;2023-04-27T02:26:34;94170.72;;;19.20;36.25
70902;BME280;58548;47.210;8.618;2023-04-27T02:29:02;94170.66;;;19.14;37.32
70902;BME280;58548;47.210;8.618;2023-04-27T02:31:32;94176.88;;;19.08;37.04
70902;BME280;58548;47.210;8.618;2023-04-27T02:33:58;93996.19;;;17.93;36.39
70902;BME280;58548;47.210;8.618;2023-04-27T02:36:26;94178.09;;;19.01;36.94
70902;BME280;58548;47.210;8.618;2023-04-27T02:38:52;94159.50;;;18.95;36.58
70902;BME280;58548;47.210;8.618;2023-04-27T02:41:20;94169.72;;;18.92;37.16
70902;BME280;58548;47.210;8.618;2023-04-27T02:43:49;94086.78;;;18.35;36.66
70902;BME280;58548;47.210;8.618;2023-04-27T02:46:17;94061.03;;;18.13;36.40
70902;BME280;58548;47.210;8.618;2023-04-27T02:48:46;94047.41;;;17.92;36.88
70902;BME280;58548;47.210;8.618;2023-04-27T02:51:16;94104.53;;;18.22;37.13
70902;BME280;58548;47.210;8.618;2023-04-27T02:53:42;94061.19;;;17.94;37.33
70902;BME280;58548;47.210;8.618;2023-04-27T02:56:13;94086.00;;;17.93;36.87
70902;BME280;58548;47.210;8.618;2023-04-27T02:58:41;94160.97;;;18.45;37.35
70902;BME280;58548;47.210;8.618;2023-04-27T03:01:09;94110.25;;;18.02;37.62
70902;BME280;58548;47.210;8.618;2023-04-27T03:03:35;94072.84;;;17.82;37.30
70902;BME280;58548;47.210;8.618;2023-04-27T03:06:03;94139.13;;;18.21;37.84
70902;BME280;58548;47.210;8.618;2023-04-27T03:08:29;93989.53;;;17.21;38.18
70902;BME280;58548;47.210;8.618;2023-04-27T03:10:55;94059.00;;;17.62;38.05
70902;BME280;58548;47.210;8.618;2023-04-27T03:13:23;94107.63;;;17.90;37.81
70902;BME280;58548;47.210;8.618;2023-04-27T03:15:52;94164.50;;;18.34;38.62
70902;BME280;58548;47.210;8.618;2023-04-27T03:18:18;94008.25;;;17.31;38.08
70902;BME280;58548;47.210;8.618;2023-04-27T03:20:49;94160.00;;;18.34;38.16
70902;BME280;58548;47.210;8.618;2023-04-27T03:23:17;94140.50;;;18.23;37.99
70902;BME280;58548;47.210;8.618;2023-04-27T03:25:43;94066.09;;;17.74;38.11
70902;BME280;58548;47.210;8.618;2023-04-27T03:28:11;94084.75;;;17.84;38.42
70902;BME280;58548;47.210;8.618;2023-04-27T03:30:38;94062.88;;;17.72;38.26
70902;BME280;58548;47.210;8.618;2023-04-27T03:33:06;94154.38;;;18.31;37.83
70902;BME280;58548;47.210;8.618;2023-04-27T03:35:37;94147.88;;;18.21;38.05
70902;BME280;58548;47.210;8.618;2023-04-27T03:38:05;94159.31;;;18.39;38.32
70902;BME280;58548;47.210;8.618;2023-04-27T03:40:31;94098.97;;;17.95;37.95
70902;BME280;58548;47.210;8.618;2023-04-27T03:42:57;94078.13;;;17.82;37.90
70902;BME280;58548;47.210;8.618;2023-04-27T03:45:27;94159.53;;;18.37;37.65
70902;BME280;58548;47.210;8.618;2023-04-27T03:47:53;94138.34;;;18.20;37.84
70902;BME280;58548;47.210;8.618;2023-04-27T03:50:19;94153.81;;;18.29;37.86
70902;BME280;58548;47.210;8.618;2023-04-27T03:52:47;94078.91;;;17.82;38.73
70902;BME280;58548;47.210;8.618;2023-04-27T03:55:13;94064.94;;;17.70;38.25
70902;BME280;58548;47.210;8.618;2023-04-27T03:57:41;94163.91;;;18.32;38.78
70902;BME280;58548;47.210;8.618;2023-04-27T04:00:07;94076.88;;;17.72;38.30
70902;BME280;58548;47.210;8.618;2023-04-27T04:02:38;94170.56;;;18.34;38.27
70902;BME280;58548;47.210;8.618;2023-04-27T04:05:10;94068.63;;;17.69;38.24
70902;BME280;58548;47.210;8.618;2023-04-27T04:07:37;94160.59;;;18.24;38.35
70902;BME280;58548;47.210;8.618;2023-04-27T04:10:03;94170.25;;;18.31;38.07
70902;BME280;58548;47.210;8.618;2023-04-27T04:12:31;94171.75;;;18.27;38.33
70902;BME280;58548;47.210;8.618;2023-04-27T04:14:59;94075.88;;;17.61;38.70
70902;BME280;58548;47.210;8.618;2023-04-27T04:17:30;94068.09;;;17.55;38.35
70902;BME280;58548;47.210;8.618;2023-04-27T04:20:01;94173.75;;;18.19;38.42
70902;BME280;58548;47.210;8.618;2023-04-27T04:22:32;94083.13;;;17.54;38.04
70902;BME280;58548;47.210;8.618;2023-04-27T04:25:03;94169.38;;;18.13;38.69
70902;BME280;58548;47.210;8.618;2023-04-27T04:27:31;94050.22;;;17.33;38.16
70902;BME280;58548;47.210;8.618;2023-04-27T04:29:58;94080.84;;;17.46;38.27
70902;BME280;58548;47.210;8.618;2023-04-27T04:32:30;94076.03;;;17.43;38.61
70902;BME280;58548;47.210;8.618;2023-04-27T04:34:57;94080.84;;;17.46;38.32
70902;BME280;58548;47.210;8.618;2023-04-27T04:37:23;94181.47;;;18.09;38.04
70902;BME280;58548;47.210;8.618;2023-04-27T04:39:52;94174.34;;;18.10;38.19
70902;BME280;58548;47.210;8.618;2023-04-27T04:42:18;94075.00;;;17.44;38.59
70902;BME280;58548;47.210;8.618;2023-04-27T04:44:44;94022.16;;;17.15;38.54
70902;BME280;58548;47.210;8.618;2023-04-27T04:47:11;94077.63;;;17.56;38.30
70902;BME280;58548;47.210;8.618;2023-04-27T04:49:37;94094.56;;;17.72;38.32
70902;BME280;58548;47.210;8.618;2023-04-27T04:52:05;94182.00;;;18.23;38.62
70902;BME280;58548;47.210;8.618;2023-04-27T04:54:31;94170.06;;;18.20;38.94
70902;BME280;58548;47.210;8.618;2023-04-27T04:56:59;94080.81;;;17.58;38.08
70902;BME280;58548;47.210;8.618;2023-04-27T04:59:32;94174.78;;;18.18;38.03
70902;BME280;58548;47.210;8.618;2023-04-27T05:01:58;94105.00;;;17.78;38.75
70902;BME280;58548;47.210;8.618;2023-04-27T05:04:23;93991.88;;;17.06;38.99
70902;BME280;58548;47.210;8.618;2023-04-27T05:06:54;94099.16;;;17.76;39.04
70902;BME280;58548;47.210;8.618;2023-04-27T05:09:26;94169.09;;;18.27;38.34
70902;BME280;58548;47.210;8.618;2023-04-27T05:11:52;94100.16;;;17.87;38.16
70902;BME280;58548;47.210;8.618;2023-04-27T05:14:18;94069.41;;;17.69;38.57
70902;BME280;58548;47.210;8.618;2023-04-27T05:16:44;94079.94;;;17.81;38.55
70902;BME280;58548;47.210;8.618;2023-04-27T05:19:13;94166.09;;;18.35;38.80
70902;BME280;58548;47.210;8.618;2023-04-27T05:21:46;94163.56;;;18.40;38.35
70902;BME280;58548;47.210;8.618;2023-04-27T05:24:12;94166.19;;;18.40;37.88
70902;BME280;58548;47.210;8.618;2023-04-27T05:26:44;94136.75;;;18.19;37.82
70902;BME280;58548;47.210;8.618;2023-04-27T05:29:12;94164.03;;;18.37;38.05
70902;BME280;58548;47.210;8.618;2023-04-27T05:31:40;94070.41;;;17.80;38.57
70902;BME280;58548;47.210;8.618;2023-04-27T05:34:10;94172.13;;;18.47;38.63
70902;BME280;58548;47.210;8.618;2023-04-27T05:36:39;94177.03;;;18.56;38.66
70902;BME280;58548;47.210;8.618;2023-04-27T05:39:05;94074.16;;;17.96;38.45
70902;BME280;58548;47.210;8.618;2023-04-27T05:41:33;94160.72;;;18.59;38.45
70902;BME280;58548;47.210;8.618;2023-04-27T05:43:59;94180.16;;;18.81;37.93
70902;BME280;58548;47.210;8.618;2023-04-27T05:46:27;94175.50;;;18.89;38.48
70902;BME280;58548;47.210;8.618;2023-04-27T05:48:57;94068.84;;;18.37;37.73
70902;BME280;58548;47.210;8.618;2023-04-27T05:51:23;94097.38;;;18.69;37.46
70902;BME280;58548;47.210;8.618;2023-04-27T05:53:51;94179.63;;;19.31;37.74
70902;BME280;58548;47.210;8.618;2023-04-27T05:56:21;94071.97;;;18.68;37.15
70902;BME280;58548;47.210;8.618;2023-04-27T05:58:47;94080.88;;;18.79;37.27
70902;BME280;58548;47.210;8.618;2023-04-27T06:01:13;94179.19;;;19.56;37.05
70902;BME280;58548;47.210;8.618;2023-04-27T06:03:39;94088.47;;;19.04;36.88
70902;BME280;58548;47.210;8.618;2023-04-27T06:06:05;94200.38;;;19.90;36.17
70902;BME280;58548;47.210;8.618;2023-04-27T06:08:38;94203.78;;;20.08;36.37
70902;BME280;58548;47.210;8.618;2023-04-27T06:11:04;94196.25;;;20.22;36.44
70902;BME280;58548;47.210;8.618;2023-04-27T06:13:30;94214.94;;;20.54;35.94
70902;BME280;58548;47.210;8.618;2023-04-27T06:16:00;94113.19;;;20.16;35.30
70902;BME280;58548;47.210;8.618;2023-04-27T06:18:31;94195.75;;;20.97;35.55
70902;BME280;58548;47.210;8.618;2023-04-27T06:21:00;94157.16;;;20.89;35.42
70902;BME280;58548;47.210;8.618;2023-04-27T06:23:31;94153.25;;;20.97;34.40
70902;BME280;58548;47.210;8.618;2023-04-27T06:25:59;94202.47;;;21.42;34.48
70902;BME280;58548;47.210;8.618;2023-04-27T06:28:28;94210.56;;;21.58;34.94
70902;BME280;58548;47.210;8.618;2023-04-27T06:30:57;94208.84;;;21.79;33.26
70902;BME280;58548;47.210;8.618;2023-04-27T06:33:25;94125.22;;;21.54;33.47
70902;BME280;58548;47.210;8.618;2023-04-27T06:35:51;94138.16;;;21.83;33.02
70902;BME280;58548;47.210;8.618;2023-04-27T06:38:19;94200.69;;;22.49;32.52
70902;BME280;58548;47.210;8.618;2023-04-27T06:40:53;94110.84;;;22.03;32.24
70902;BME280;58548;47.210;8.618;2023-04-27T06:43:21;94121.03;;;22.17;31.79
70902;BME280;58548;47.210;8.618;2023-04-27T06:45:47;94194.66;;;22.80;31.75
70902;BME280;58548;47.210;8.618;2023-04-27T06:48:13;94212.25;;;23.12;31.04
70902;BME280;58548;47.210;8.618;2023-04-27T06:50:42;94205.88;;;23.18;30.75
70902;BME280;58548;47.210;8.618;2023-04-27T06:53:09;94178.69;;;23.11;30.37
70902;BME280;58548;47.210;8.618;2023-04-27T06:55:35;94227.78;;;23.51;31.31
70902;BME280;58548;47.210;8.618;2023-04-27T06:58:03;94206.97;;;23.43;31.11
70902;BME280;58548;47.210;8.618;2023-04-27T07:00:30;94167.25;;;23.15;30.59
70902;BME280;58548;47.210;8.618;2023-04-27T07:02:56;94212.84;;;23.45;30.58
70902;BME280;58548;47.210;8.618;2023-04-27T07:05:22;94234.66;;;23.52;30.83
70902;BME280;58548;47.210;8.618;2023-04-27T07:07:48;94152.59;;;22.92;30.28
70902;BME280;58548;47.210;8.618;2023-04-27T07:10:14;94164.03;;;23.03;30.07
70902;BME280;58548;47.210;8.618;2023-04-27T07:12:41;94240.81;;;23.53;30.11
70902;BME280;58548;47.210;8.618;2023-04-27T07:15:09;94244.25;;;23.53;30.19
70902;BME280;58548;47.210;8.618;2023-04-27T07:17:38;94244.81;;;23.55;29.93
70902;BME280;58548;47.210;8.618;2023-04-27T07:20:05;94136.09;;;22.85;30.66
70902;BME280;58548;47.210;8.618;2023-04-27T07:22:33;94168.28;;;22.99;30.14
70902;BME280;58548;47.210;8.618;2023-04-27T07:24:59;94157.91;;;22.92;30.16
70902;BME280;58548;47.210;8.618;2023-04-27T07:27:25;94241.63;;;23.43;29.50
70902;BME280;58548;47.210;8.618;2023-04-27T07:29:54;94245.63;;;23.56;29.57
70902;BME280;58548;47.210;8.618;2023-04-27T07:32:20;94152.59;;;22.97;29.37
70902;BME280;58548;47.210;8.618;2023-04-27T07:34:49;94230.97;;;23.43;29.92
70902;BME280;58548;47.210;8.618;2023-04-27T07:37:18;94234.66;;;23.52;30.21
70902;BME280;58548;47.210;8.618;2023-04-27T07:39:49;94233.59;;;23.58;30.48
70902;BME280;58548;47.210;8.618;2023-04-27T07:42:20;94157.44;;;23.26;30.54
70902;BME280;58548;47.210;8.618;2023-04-27T07:44:52;94240.78;;;23.99;29.61
70902;BME280;58548;47.210;8.618;2023-04-27T07:47:18;94242.59;;;24.19;30.59
70902;BME280;58548;47.210;8.618;2023-04-27T07:49:44;94218.28;;;24.31;30.26
70902;BME280;58548;47.210;8.618;2023-04-27T07:52:11;94221.09;;;24.61;29.37
70902;BME280;58548;47.210;8.618;2023-04-27T07:54:40;94237.44;;;25.04;28.96
70902;BME280;58548;47.210;8.618;2023-04-27T07:57:11;94134.31;;;24.63;28.31
70902;BME280;58548;47.210;8.618;2023-04-27T07:59:40;94157.34;;;24.99;28.41
70902;BME280;58548;47.210;8.618;2023-04-27T08:02:06;94223.50;;;25.52;27.85
70902;BME280;58548;47.210;8.618;2023-04-27T08:04:32;94232.94;;;25.74;28.37
70902;BME280;58548;47.210;8.618;2023-04-27T08:07:00;94078.69;;;24.81;28.43
70902;BME280;58548;47.210;8.618;2023-04-27T08:09:26;94234.66;;;25.89;28.36
70902;BME280;58548;47.210;8.618;2023-04-27T08:11:52;94171.06;;;25.56;27.21
70902;BME280;58548;47.210;8.618;2023-04-27T08:14:20;94149.44;;;25.53;27.92
70902;BME280;58548;47.210;8.618;2023-04-27T08:16:46;94137.38;;;25.55;27.92
70902;BME280;58548;47.210;8.618;2023-04-27T08:19:14;94158.81;;;25.80;27.58
70902;BME280;58548;47.210;8.618;2023-04-27T08:21:43;94148.28;;;25.88;27.13
70902;BME280;58548;47.210;8.618;2023-04-27T08:24:12;94198.03;;;26.38;27.34
70902;BME280;58548;47.210;8.618;2023-04-27T08:26:39;94226.75;;;26.76;26.85
70902;BME280;58548;47.210;8.618;2023-04-27T08:29:06;94223.31;;;26.94;26.49
70902;BME280;58548;47.210;8.618;2023-04-27T08:31:34;94217.78;;;27.43;26.97
70902;BME280;58548;47.210;8.618;2023-04-27T08:34:02;94084.22;;;27.12;25.55
70902;BME280;58548;47.210;8.618;2023-04-27T08:36:28;94194.41;;;28.52;24.96
70902;BME280;58548;47.210;8.618;2023-04-27T08:38:54;94224.63;;;29.22;23.63
70902;BME280;58548;47.210;8.618;2023-04-27T08:41:23;94143.47;;;28.97;21.79
70902;BME280;58548;47.210;8.618;2023-04-27T08:43:51;94220.63;;;29.56;21.72
70902;BME280;58548;47.210;8.618;2023-04-27T08:46:24;94137.03;;;29.07;21.14
70902;BME280;58548;47.210;8.618;2023-04-27T08:48:53;94212.19;;;29.81;21.60
70902;BME280;58548;47.210;8.618;2023-04-27T08:51:21;94211.13;;;29.90;21.45
70902;BME280;58548;47.210;8.618;2023-04-27T08:53:51;94218.22;;;30.09;21.47
70902;BME280;58548;47.210;8.618;2023-04-27T08:56:23;94149.56;;;29.89;21.51
70902;BME280;58548;47.210;8.618;2023-04-27T08:58:53;94220.28;;;30.52;22.09
70902;BME280;58548;47.210;8.618;2023-04-27T09:01:19;94223.41;;;30.95;21.26
70902;BME280;58548;47.210;8.618;2023-04-27T09:03:45;94153.44;;;30.72;20.13
70902;BME280;58548;47.210;8.618;2023-04-27T09:06:12;94149.34;;;31.01;20.16
70902;BME280;58548;47.210;8.618;2023-04-27T09:08:46;94210.53;;;31.80;19.84
70902;BME280;58548;47.210;8.618;2023-04-27T09:11:27;94221.38;;;32.18;18.83
70902;BME280;58548;47.210;8.618;2023-04-27T09:13:54;94157.03;;;31.82;18.64
70902;BME280;58548;47.210;8.618;2023-04-27T09:16:24;94225.66;;;32.28;17.84
70902;BME280;58548;47.210;8.618;2023-04-27T09:18:55;94221.94;;;32.42;17.57
70902;BME280;58548;47.210;8.618;2023-04-27T09:21:23;94228.00;;;32.69;18.00
70902;BME280;58548;47.210;8.618;2023-04-27T09:23:50;94158.78;;;32.76;17.72
70902;BME280;58548;47.210;8.618;2023-04-27T09:26:22;94220.63;;;33.50;16.06
70902;BME280;58548;47.210;8.618;2023-04-27T09:28:53;94220.91;;;33.70;16.66
70902;BME280;58548;47.210;8.618;2023-04-27T09:31:38;94152.09;;;33.71;15.40
70902;BME280;58548;47.210;8.618;2023-04-27T09:34:05;94164.94;;;34.08;14.19
70902;BME280;58548;47.210;8.618;2023-04-27T09:36:33;94207.06;;;34.55;14.51
70902;BME280;58548;47.210;8.618;2023-04-27T09:39:02;94223.56;;;34.75;14.79
70902;BME280;58548;47.210;8.618;2023-04-27T09:41:31;94121.25;;;34.09;14.00
70902;BME280;58548;47.210;8.618;2023-04-27T09:43:58;94078.31;;;33.62;13.05
70902;BME280;58548;47.210;8.618;2023-04-27T09:46:25;94212.03;;;34.28;14.86
70902;BME280;58548;47.210;8.618;2023-04-27T09:48:55;94216.06;;;33.97;14.27
70902;BME280;58548;47.210;8.618;2023-04-27T09:51:24;94213.03;;;33.65;15.19
70902;BME280;58548;47.210;8.618;2023-04-27T09:53:56;94219.13;;;33.41;14.41
70902;BME280;58548;47.210;8.618;2023-04-27T10:07:11;94204.13;;;34.23;14.90
70902;BME280;58548;47.210;8.618;2023-04-27T10:09:43;94190.69;;;34.26;14.42
70902;BME280;58548;47.210;8.618;2023-04-27T10:12:26;94206.50;;;34.37;14.30
70902;BME280;58548;47.210;8.618;2023-04-27T10:14:59;94139.53;;;34.12;14.10
70902;BME280;58548;47.210;8.618;2023-04-27T10:17:31;94198.41;;;34.62;13.63
70902;BME280;58548;47.210;8.618;2023-04-27T10:20:07;94200.31;;;34.49;13.88
70902;BME280;58548;47.210;8.618;2023-04-27T10:22:43;94171.94;;;34.34;13.51
70902;BME280;58548;47.210;8.618;2023-04-27T10:28:05;94208.44;;;34.61;13.38
70902;BME280;58548;47.210;8.618;2023-04-27T10:30:34;94143.59;;;34.06;14.01
70902;BME280;58548;47.210;8.618;2023-04-27T10:33:09;94202.44;;;34.68;13.90
70902;BME280;58548;47.210;8.618;2023-04-27T10:35:52;94114.00;;;34.38;14.85
70902;BME280;58548;47.210;8.618;2023-04-27T10:38:28;94198.84;;;35.17;14.41
70902;BME280;58548;47.210;8.618;2023-04-27T10:41:01;94194.53;;;35.28;14.57
70902;BME280;58548;47.210;8.618;2023-04-27T10:43:32;94194.03;;;35.10;13.38
70902;BME280;58548;47.210;8.618;2023-04-27T10:46:12;94194.63;;;34.91;13.58
70902;BME280;58548;47.210;8.618;2023-04-27T10:48:43;94188.97;;;34.84;13.58
70902;BME280;58548;47.210;8.618;2023-04-27T10:51:14;94112.66;;;34.20;13.94
70902;BME280;58548;47.210;8.618;2023-04-27T10:53:40;94108.38;;;34.31;14.93
70902;BME280;58548;47.210;8.618;2023-04-27T10:56:11;94194.16;;;35.01;14.62
70902;BME280;58548;47.210;8.618;2023-04-27T10:58:37;94185.81;;;34.82;14.19
70902;BME280;58548;47.210;8.618;2023-04-27T11:01:03;94110.72;;;34.33;13.67
70902;BME280;58548;47.210;8.618;2023-04-27T11:03:29;94107.00;;;34.37;13.75
70902;BME280;58548;47.210;8.618;2023-04-27T11:06:01;94170.94;;;34.51;13.26
70902;BME280;58548;47.210;8.618;2023-04-27T11:08:29;94117.97;;;33.91;13.78
70902;BME280;58548;47.210;8.618;2023-04-27T11:11:03;94100.63;;;33.46;14.44
70902;BME280;58548;47.210;8.618;2023-04-27T11:13:36;94190.91;;;33.75;15.03
70902;BME280;58548;47.210;8.618;2023-04-27T11:16:05;94149.38;;;33.04;15.15
70902;BME280;58548;47.210;8.618;2023-04-27T11:18:31;94116.97;;;32.74;15.24
70902;BME280;58548;47.210;8.618;2023-04-27T11:21:13;94190.34;;;32.93;15.51
70902;BME280;58548;47.210;8.618;2023-04-27T11:23:40;94190.31;;;32.72;15.93
70902;BME280;58548;47.210;8.618;2023-04-27T11:26:20;94181.88;;;32.74;16.58
70902;BME280;58548;47.210;8.618;2023-04-27T11:29:00;94196.09;;;33.13;15.95
70902;BME280;58548;47.210;8.618;2023-04-27T11:31:39;94181.19;;;33.62;15.46
70902;BME280;58548;47.210;8.618;2023-04-27T11:34:06;94155.28;;;33.86;15.42
70902;BME280;58548;47.210;8.618;2023-04-27T11:36:32;94179.50;;;34.40;15.50
70902;BME280;58548;47.210;8.618;2023-04-27T11:39:01;94197.34;;;34.54;14.59
70902;BME280;58548;47.210;8.618;2023-04-27T11:41:36;94184.03;;;34.73;15.20
70902;BME280;58548;47.210;8.618;2023-04-27T11:44:12;94180.75;;;34.68;14.52
70902;BME280;58548;47.210;8.618;2023-04-27T11:46:42;94110.31;;;34.18;14.39
70902;BME280;58548;47.210;8.618;2023-04-27T11:49:14;94121.66;;;34.36;13.90
70902;BME280;58548;47.210;8.618;2023-04-27T11:51:40;94105.53;;;34.03;14.06
70902;BME280;58548;47.210;8.618;2023-04-27T11:54:09;94105.66;;;33.94;14.38
70902;BME280;58548;47.210;8.618;2023-04-27T11:56:36;94181.97;;;34.33;15.21
70902;BME280;58548;47.210;8.618;2023-04-27T11:59:05;94146.75;;;34.33;14.90
70902;BME280;58548;47.210;8.618;2023-04-27T12:01:33;94170.69;;;34.68;15.04
70902;BME280;58548;47.210;8.618;2023-04-27T12:04:02;94174.50;;;34.92;14.49
70902;BME280;58548;47.210;8.618;2023-04-27T12:06:32;94178.31;;;35.16;14.44
70902;BME280;58548;47.210;8.618;2023-04-27T12:08:58;94097.16;;;34.98;14.03
70902;BME280;58548;47.210;8.618;2023-04-27T12:11:26;94118.00;;;34.94;13.35
70902;BME280;58548;47.210;8.618;2023-04-27T12:13:53;94132.00;;;34.96;13.21
70902;BME280;58548;47.210;8.618;2023-04-27T12:16:22;94176.16;;;35.09;13.17
70902;BME280;58548;47.210;8.618;2023-04-27T12:18:53;94177.09;;;35.01;14.00
70902;BME280;58548;47.210;8.618;2023-04-27T12:21:21;94089.41;;;34.43;14.13
70902;BME280;58548;47.210;8.618;2023-04-27T12:23:49;94091.34;;;34.18;14.35
70902;BME280;58548;47.210;8.618;2023-04-27T12:26:16;94087.81;;;34.42;13.66
70902;BME280;58548;47.210;8.618;2023-04-27T12:28:42;94064.38;;;34.09;13.76
70902;BME280;58548;47.210;8.618;2023-04-27T12:31:14;94095.03;;;34.26;14.97
70902;BME280;58548;47.210;8.618;2023-04-27T12:33:43;94150.84;;;34.27;13.56
70902;BME280;58548;47.210;8.618;2023-04-27T12:36:09;94086.69;;;33.81;14.57
70902;BME280;58548;47.210;8.618;2023-04-27T12:38:37;94136.38;;;34.10;14.46
70902;BME280;58548;47.210;8.618;2023-04-27T12:41:03;94154.59;;;33.76;14.48
70902;BME280;58548;47.210;8.618;2023-04-27T12:43:31;94151.22;;;33.67;14.92
70902;BME280;58548;47.210;8.618;2023-04-27T12:45:57;94159.09;;;33.72;15.21
70902;BME280;58548;47.210;8.618;2023-04-27T12:48:25;94154.75;;;33.46;15.22
70902;BME280;58548;47.210;8.618;2023-04-27T12:50:51;94160.09;;;33.34;15.61
70902;BME280;58548;47.210;8.618;2023-04-27T12:53:17;94165.81;;;32.99;15.34
70902;BME280;58548;47.210;8.618;2023-04-27T12:55:43;94149.22;;;32.79;15.84
70902;BME280;58548;47.210;8.618;2023-04-27T12:58:09;94152.72;;;32.58;15.82
70902;BME280;58548;47.210;8.618;2023-04-27T13:00:35;94163.63;;;32.41;15.41
70902;BME280;58548;47.210;8.618;2023-04-27T13:03:03;94156.41;;;32.15;16.22
70902;BME280;58548;47.210;8.618;2023-04-27T13:05:29;94141.09;;;31.98;16.80
70902;BME280;58548;47.210;8.618;2023-04-27T13:07:55;94146.09;;;32.17;16.97
70902;BME280;58548;47.210;8.618;2023-04-27T13:10:23;94098.00;;;32.01;16.36
70902;BME280;58548;47.210;8.618;2023-04-27T13:12:51;94149.03;;;32.33;16.54
70902;BME280;58548;47.210;8.618;2023-04-27T13:15:18;94101.47;;;32.11;16.22
70902;BME280;58548;47.210;8.618;2023-04-27T13:17:45;94146.25;;;32.12;16.63
70902;BME280;58548;47.210;8.618;2023-04-27T13:20:13;94147.72;;;32.00;16.60